createdAt,value
2022-09-24T00:01:38.779Z,5.97
2022-09-24T00:04:07.618Z,6.53
2022-09-24T00:06:36.878Z,6.80
2022-09-24T00:09:04.225Z,6.53
2022-09-24T00:11:31.708Z,6.55
2022-09-24T00:13:59.302Z,6.05
2022-09-24T00:16:27.973Z,6.50
2022-09-24T00:18:55.409Z,6.18
2022-09-24T00:21:24.152Z,5.75
2022-09-24T00:23:52.488Z,5.88
2022-09-24T00:26:38.794Z,6.30
2022-09-24T00:29:06.272Z,5.90
2022-09-24T00:31:33.809Z,5.70
2022-09-24T00:34:01.596Z,6.18
2022-09-24T00:36:28.807Z,5.47
2022-09-24T00:38:57.207Z,5.60
2022-09-24T00:41:25.826Z,5.90
2022-09-24T00:43:52.996Z,5.15
2022-09-24T00:46:28.604Z,5.60
2022-09-24T00:49:15.495Z,6.35
2022-09-24T00:51:44.410Z,6.13
2022-09-24T00:54:18.181Z,5.47
2022-09-24T00:56:45.816Z,6.72
2022-09-24T00:59:16.930Z,5.88
2022-09-24T01:01:45.115Z,6.05
2022-09-24T01:04:12.649Z,6.40
2022-09-24T01:06:39.898Z,6.05
2022-09-24T01:09:07.018Z,7.22
2022-09-24T01:11:42.736Z,6.25
2022-09-24T01:14:15.767Z,6.47
2022-09-24T01:17:01.440Z,6.22
2022-09-24T01:19:47.124Z,6.18
2022-09-24T01:22:14.350Z,6.68
2022-09-24T01:25:01.573Z,6.82
2022-09-24T01:27:31.698Z,6.43
2022-09-24T01:30:06.404Z,6.40
2022-09-24T01:32:40.158Z,6.80
2022-09-24T01:35:13.658Z,6.82
2022-09-24T01:40:08.318Z,6.78
2022-09-24T01:42:37.655Z,7.03
2022-09-24T01:45:05.963Z,6.53
2022-09-24T01:47:39.698Z,6.70
2022-09-24T01:50:11.213Z,6.95
2022-09-24T01:53:01.799Z,6.85
2022-09-24T01:55:34.963Z,6.80
2022-09-24T01:58:04.881Z,7.18
2022-09-24T02:00:32.460Z,7.10
2022-09-24T02:03:08.861Z,8.48
2022-09-24T02:05:39.373Z,7.25
2022-09-24T02:08:11.784Z,7.72
2022-09-24T02:10:42.939Z,7.63
2022-09-24T02:13:14.088Z,7.18
2022-09-24T02:15:42.656Z,8.07
2022-09-24T02:18:11.643Z,6.97
2022-09-24T02:20:40.499Z,6.50
2022-09-24T02:23:08.309Z,6.45
2022-09-24T02:25:39.963Z,7.03
2022-09-24T02:28:07.106Z,6.30
2022-09-24T02:30:37.964Z,6.85
2022-09-24T02:33:26.488Z,6.43
2022-09-24T02:35:55.793Z,7.25
2022-09-24T02:38:23.345Z,6.95
2022-09-24T02:40:51.294Z,6.13
2022-09-24T02:43:18.419Z,5.97
2022-09-24T02:45:45.474Z,6.88
2022-09-24T02:48:12.659Z,6.45
2022-09-24T02:50:39.759Z,6.10
2022-09-24T02:53:06.883Z,5.85
2022-09-24T02:55:33.959Z,6.22
2022-09-24T02:58:01.029Z,5.90
2022-09-24T03:00:28.940Z,6.68
2022-09-24T03:02:58.941Z,6.40
2022-09-24T03:05:26.070Z,5.80
2022-09-24T03:07:53.140Z,6.28
2022-09-24T03:10:20.279Z,5.78
2022-09-24T03:12:47.334Z,6.75
2022-09-24T03:15:14.536Z,6.28
2022-09-24T03:17:41.593Z,6.10
2022-09-24T03:20:08.953Z,5.85
2022-09-24T03:22:36.201Z,6.00
2022-09-24T03:25:03.356Z,6.45
2022-09-24T03:27:30.468Z,6.07
2022-09-24T03:30:16.277Z,6.40
2022-09-24T03:32:43.329Z,6.18
2022-09-24T03:35:11.816Z,5.95
2022-09-24T03:37:39.820Z,5.50
2022-09-24T03:40:07.877Z,6.57
2022-09-24T03:42:35.119Z,6.47
2022-09-24T03:45:02.204Z,6.57
2022-09-24T03:47:30.929Z,6.32
2022-09-24T03:49:58.359Z,6.50
2022-09-24T03:52:26.269Z,6.60
2022-09-24T03:54:53.450Z,7.05
2022-09-24T03:57:20.523Z,6.40
2022-09-24T03:59:47.668Z,6.75
2022-09-24T04:02:14.850Z,6.68
2022-09-24T04:04:42.089Z,6.13
2022-09-24T04:07:09.178Z,6.85
2022-09-24T04:09:36.297Z,5.70
2022-09-24T04:12:03.485Z,6.20
2022-09-24T04:14:30.641Z,5.93
2022-09-24T04:16:58.943Z,7.05
2022-09-24T04:19:26.856Z,10.93
2022-09-24T04:21:53.990Z,13.00
2022-09-24T04:24:21.282Z,9.93
2022-09-24T04:26:48.323Z,7.93
2022-09-24T04:29:15.401Z,7.90
2022-09-24T04:31:42.499Z,9.10
2022-09-24T04:34:10.409Z,7.15
2022-09-24T04:36:37.532Z,6.78
2022-09-24T04:39:04.952Z,6.68
2022-09-24T04:41:34.206Z,7.70
2022-09-24T04:44:02.063Z,5.95
2022-09-24T04:46:29.249Z,6.25
2022-09-24T04:48:57.618Z,8.25
2022-09-24T04:51:24.676Z,7.03
2022-09-24T04:53:51.764Z,7.03
2022-09-24T04:56:18.856Z,7.20
2022-09-24T04:58:45.908Z,6.50
2022-09-24T05:01:13.664Z,7.95
2022-09-24T05:03:41.159Z,6.72
2022-09-24T05:06:08.276Z,7.00
2022-09-24T05:08:35.910Z,8.07
2022-09-24T05:11:03.103Z,7.47
2022-09-24T05:13:30.250Z,6.43
2022-09-24T05:15:57.348Z,7.28
2022-09-24T05:18:24.558Z,6.50
2022-09-24T05:20:51.597Z,6.40
2022-09-24T05:23:18.797Z,6.15
2022-09-24T05:26:04.614Z,6.63
2022-09-24T05:28:33.232Z,6.57
2022-09-24T05:31:00.763Z,7.32
2022-09-24T05:33:27.948Z,7.63
2022-09-24T05:35:55.679Z,7.75
2022-09-24T05:38:22.968Z,6.75
2022-09-24T05:40:50.851Z,6.90
2022-09-24T05:43:21.980Z,7.10
2022-09-24T05:45:50.160Z,6.57
2022-09-24T05:48:17.336Z,5.93
2022-09-24T05:50:44.397Z,6.07
2022-09-24T05:53:11.665Z,7.47
2022-09-24T05:55:38.750Z,6.63
2022-09-24T05:58:11.295Z,5.93
2022-09-24T06:00:38.482Z,5.82
2022-09-24T06:03:12.013Z,4.75
2022-09-24T06:08:08.704Z,5.28
2022-09-24T06:10:36.587Z,4.90
2022-09-24T06:13:04.014Z,4.78
2022-09-24T06:15:31.142Z,5.45
2022-09-24T06:17:58.215Z,5.80
2022-09-24T06:20:25.306Z,5.65
2022-09-24T06:22:55.265Z,5.38
2022-09-24T06:25:22.333Z,17.50
2022-09-24T06:27:56.095Z,6.00
2022-09-24T06:30:23.145Z,17.70
2022-09-24T06:32:50.223Z,5.82
2022-09-24T06:35:17.324Z,5.63
2022-09-24T06:37:44.439Z,4.97
2022-09-24T06:40:11.528Z,4.85
2022-09-24T06:42:38.810Z,5.18
2022-09-24T06:45:06.128Z,3.45
2022-09-24T06:47:33.283Z,3.60
2022-09-24T06:50:00.372Z,3.47
2022-09-24T06:52:30.047Z,2.90
2022-09-24T06:54:57.115Z,3.78
2022-09-24T06:57:28.765Z,3.63
2022-09-24T06:59:56.260Z,3.40
2022-09-24T07:02:23.477Z,3.60
2022-09-24T07:04:50.525Z,3.10
2022-09-24T07:07:30.045Z,2.92
2022-09-24T07:09:57.599Z,3.75
2022-09-24T07:12:24.685Z,2.80
2022-09-24T07:14:51.742Z,4.30
2022-09-24T07:17:18.808Z,4.45
2022-09-24T07:19:45.906Z,3.40
2022-09-24T07:22:13.078Z,3.13
2022-09-24T07:24:40.213Z,3.33
2022-09-24T07:27:07.595Z,3.55
2022-09-24T07:29:34.915Z,3.88
2022-09-24T07:32:02.436Z,3.70
2022-09-24T07:34:29.754Z,3.15
2022-09-24T07:36:57.358Z,3.80
2022-09-24T07:39:24.880Z,3.03
2022-09-24T07:41:52.361Z,3.28
2022-09-24T07:44:23.253Z,2.70
2022-09-24T07:46:50.899Z,2.58
2022-09-24T07:49:18.437Z,2.65
2022-09-24T07:51:46.053Z,3.00
2022-09-24T07:54:17.042Z,2.90
2022-09-24T07:56:44.589Z,3.00
2022-09-24T07:59:11.710Z,2.42
2022-09-24T08:01:39.823Z,2.60
2022-09-24T08:04:07.627Z,2.08
2022-09-24T08:06:39.579Z,2.25
2022-09-24T08:11:35.847Z,3.00
2022-09-24T08:14:03.073Z,2.42
2022-09-24T08:16:30.246Z,2.88
2022-09-24T08:18:57.358Z,2.30
2022-09-24T08:21:24.455Z,2.22
2022-09-24T08:23:51.651Z,2.60
2022-09-24T08:26:18.744Z,2.60
2022-09-24T08:28:45.875Z,3.50
2022-09-24T08:31:14.189Z,2.67
2022-09-24T08:33:41.930Z,2.65
2022-09-24T08:36:10.175Z,2.30
2022-09-24T08:38:37.491Z,2.40
2022-09-24T08:41:13.919Z,1.85
2022-09-24T08:43:49.095Z,2.03
2022-09-24T08:46:37.973Z,1.33
2022-09-24T08:49:07.208Z,1.80
2022-09-24T08:51:39.019Z,1.75
2022-09-24T08:54:08.365Z,1.90
2022-09-24T08:56:38.039Z,1.85
2022-09-24T08:59:24.005Z,1.50
2022-09-24T09:01:56.723Z,2.10
2022-09-24T09:04:36.077Z,2.28
2022-09-24T09:07:15.702Z,2.45
2022-09-24T09:09:45.519Z,2.00
2022-09-24T09:12:38.723Z,2.05
2022-09-24T09:15:12.837Z,1.87
2022-09-24T09:17:52.240Z,1.80
2022-09-24T09:20:19.418Z,2.10
2022-09-24T09:22:51.119Z,1.98
2022-09-24T09:25:19.960Z,1.55
2022-09-24T09:27:48.274Z,1.75
2022-09-24T09:30:16.978Z,1.73
2022-09-24T09:32:52.038Z,1.88
2022-09-24T09:35:30.012Z,1.35
2022-09-24T09:38:19.172Z,1.90
2022-09-24T09:40:49.118Z,1.63
2022-09-24T09:43:16.379Z,1.27
2022-09-24T09:46:02.648Z,1.67
2022-09-24T09:48:38.562Z,1.58
2022-09-24T09:51:06.933Z,1.55
2022-09-24T09:53:34.108Z,1.42
2022-09-24T09:56:06.436Z,1.48
2022-09-24T09:58:34.596Z,1.77
2022-09-24T10:01:08.126Z,1.48
2022-09-24T10:06:03.839Z,1.50
2022-09-24T10:08:31.000Z,2.10
2022-09-24T10:10:59.212Z,1.92
2022-09-24T10:13:26.858Z,2.15
2022-09-24T10:15:58.439Z,2.20
2022-09-24T10:18:30.212Z,2.20
2022-09-24T10:20:57.930Z,2.15
2022-09-24T10:23:33.143Z,1.70
2022-09-24T10:26:01.237Z,2.00
2022-09-24T10:28:47.728Z,2.03
2022-09-24T10:31:26.920Z,1.70
2022-09-24T10:33:55.866Z,2.20
2022-09-24T10:36:24.805Z,1.67
2022-09-24T10:39:03.007Z,2.10
2022-09-24T10:41:31.169Z,1.75
2022-09-24T10:44:02.635Z,1.70
2022-09-24T10:46:29.824Z,1.75
2022-09-24T10:49:01.807Z,1.48
2022-09-24T10:51:34.445Z,1.67
2022-09-24T10:54:18.526Z,1.97
2022-09-24T10:56:51.707Z,1.50
2022-09-24T10:59:28.124Z,1.83
2022-09-24T11:02:15.843Z,1.58
2022-09-24T11:04:48.112Z,1.77
2022-09-24T11:07:15.160Z,1.90
2022-09-24T11:09:50.817Z,1.85
2022-09-24T11:12:43.930Z,1.85
2022-09-24T11:15:20.180Z,2.03
2022-09-24T11:18:02.898Z,1.85
2022-09-24T11:20:39.937Z,1.50
2022-09-24T11:23:18.317Z,2.50
2022-09-24T11:25:48.216Z,2.13
2022-09-24T11:28:22.731Z,2.70
2022-09-24T11:30:49.825Z,2.67
2022-09-24T11:33:32.413Z,3.58
2022-09-24T11:36:07.417Z,1.95
2022-09-24T11:38:37.515Z,3.08
2022-09-24T11:41:11.432Z,2.70
2022-09-24T11:43:50.049Z,2.50
2022-09-24T11:46:36.422Z,2.50
2022-09-24T11:49:03.535Z,2.50
2022-09-24T11:51:33.675Z,2.50
2022-09-24T11:54:04.420Z,2.42
2022-09-24T11:56:40.139Z,2.35
2022-09-24T11:59:30.251Z,1.95
2022-09-24T12:02:01.039Z,2.35
2022-09-24T12:04:29.023Z,2.63
2022-09-24T12:06:58.473Z,2.30
2022-09-24T12:09:34.150Z,2.17
2022-09-24T12:12:12.776Z,5.65
2022-09-24T12:14:39.859Z,3.80
2022-09-24T12:17:08.123Z,3.08
2022-09-24T12:19:39.782Z,2.88
2022-09-24T12:22:06.880Z,2.30
2022-09-24T12:24:35.717Z,2.20
2022-09-24T12:27:12.061Z,2.38
2022-09-24T12:30:03.776Z,2.28
2022-09-24T12:32:54.994Z,3.60
2022-09-24T12:35:25.107Z,2.35
2022-09-24T12:37:53.981Z,2.25
2022-09-24T12:40:27.210Z,2.50
2022-09-24T12:42:56.991Z,2.25
2022-09-24T12:45:24.986Z,3.35
2022-09-24T12:47:55.552Z,2.58
2022-09-24T12:50:24.855Z,1.85
2022-09-24T12:52:52.128Z,2.22
2022-09-24T12:55:29.744Z,2.10
2022-09-24T12:58:05.860Z,2.50
2022-09-24T13:00:33.572Z,2.10
2022-09-24T13:03:01.288Z,2.17
2022-09-24T13:05:30.433Z,3.08
2022-09-24T13:08:25.776Z,2.40
2022-09-24T13:10:56.183Z,2.05
2022-09-24T13:13:25.735Z,2.42
2022-09-24T13:16:01.638Z,2.92
2022-09-24T13:18:29.104Z,2.50
2022-09-24T13:21:19.394Z,2.47
2022-09-24T13:23:48.321Z,4.68
2022-09-24T13:26:21.693Z,2.17
2022-09-24T13:28:51.025Z,2.58
2022-09-24T13:31:30.532Z,2.80
2022-09-24T13:34:03.874Z,2.28
2022-09-24T13:36:33.980Z,2.20
2022-09-24T13:39:22.310Z,3.90
2022-09-24T13:41:54.208Z,9.75
2022-09-24T13:44:24.341Z,4.03
2022-09-24T13:46:59.446Z,3.33
2022-09-24T13:49:27.547Z,2.58
2022-09-24T13:52:15.011Z,4.00
2022-09-24T13:54:48.127Z,2.05
2022-09-24T13:57:21.179Z,2.20
2022-09-24T13:59:48.291Z,2.38
2022-09-24T14:02:23.365Z,2.08
2022-09-24T14:04:54.339Z,1.63
2022-09-24T14:07:22.948Z,1.80
2022-09-24T14:09:51.386Z,2.15
2022-09-24T14:12:22.346Z,1.50
2022-09-24T14:14:54.240Z,3.13
2022-09-24T14:17:21.424Z,2.10
2022-09-24T14:19:48.869Z,1.83
2022-09-24T14:22:22.349Z,2.97
2022-09-24T14:24:49.383Z,1.80
2022-09-24T14:27:20.138Z,2.83
2022-09-24T14:29:50.469Z,2.22
2022-09-24T14:32:25.802Z,2.30
2022-09-24T14:34:54.215Z,1.88
2022-09-24T14:37:25.826Z,1.70
2022-09-24T14:39:58.356Z,3.10
2022-09-24T14:42:28.032Z,1.83
2022-09-24T14:44:55.892Z,2.20
2022-09-24T14:47:25.413Z,1.70
2022-09-24T14:49:52.516Z,2.30
2022-09-24T14:52:31.082Z,1.88
2022-09-24T14:55:24.545Z,1.90
2022-09-24T14:57:56.842Z,1.67
2022-09-24T15:00:26.042Z,1.48
2022-09-24T15:02:59.642Z,1.60
2022-09-24T15:08:11.859Z,9.02
2022-09-24T15:10:39.978Z,2.70
2022-09-24T15:13:14.708Z,2.00
2022-09-24T15:15:41.998Z,1.83
2022-09-24T15:18:12.248Z,2.00
2022-09-24T15:20:39.375Z,1.95
2022-09-24T15:23:06.555Z,1.70
2022-09-24T15:25:33.927Z,1.50
2022-09-24T15:28:01.199Z,2.70
2022-09-24T15:30:28.488Z,2.15
2022-09-24T15:32:56.687Z,2.63
2022-09-24T15:35:24.511Z,2.70
2022-09-24T15:37:51.888Z,3.15
2022-09-24T15:40:22.638Z,2.70
2022-09-24T15:42:52.985Z,2.45
2022-09-24T15:45:21.574Z,3.03
2022-09-24T15:47:49.291Z,2.70
2022-09-24T15:50:16.497Z,2.92
2022-09-24T15:52:51.990Z,3.15
2022-09-24T15:55:20.445Z,2.80
2022-09-24T15:57:47.665Z,3.17
2022-09-24T16:00:18.784Z,3.30
2022-09-24T16:02:49.740Z,3.35
2022-09-24T16:05:17.088Z,3.90
2022-09-24T16:07:44.238Z,4.97
2022-09-24T16:10:11.813Z,7.63
2022-09-24T16:12:39.290Z,6.25
2022-09-24T16:15:07.024Z,5.00
2022-09-24T16:17:34.234Z,4.00
2022-09-24T16:20:01.454Z,4.93
2022-09-24T16:22:28.661Z,4.80
2022-09-24T16:24:55.731Z,3.67
2022-09-24T16:27:23.084Z,3.50
2022-09-24T16:29:50.219Z,3.10
2022-09-24T16:32:17.385Z,3.28
2022-09-24T16:34:44.444Z,2.42
2022-09-24T16:37:13.634Z,3.50
2022-09-24T16:39:40.728Z,3.17
2022-09-24T16:42:08.264Z,2.97
2022-09-24T16:44:35.384Z,3.13
2022-09-24T16:47:02.631Z,3.20
2022-09-24T16:49:29.732Z,3.15
2022-09-24T16:51:56.894Z,3.20
2022-09-24T16:54:24.038Z,3.88
2022-09-24T16:56:52.149Z,3.30
2022-09-24T16:59:19.509Z,3.47
2022-09-24T17:01:46.712Z,2.22
2022-09-24T17:04:13.810Z,2.45
2022-09-24T17:06:41.114Z,2.17
2022-09-24T17:09:26.817Z,3.08
2022-09-24T17:11:53.901Z,2.53
2022-09-24T17:14:21.137Z,2.50
2022-09-24T17:16:48.296Z,2.05
2022-09-24T17:19:15.529Z,2.20
2022-09-24T17:21:45.982Z,1.98
2022-09-24T17:24:16.488Z,1.98
2022-09-24T17:26:46.296Z,1.60
2022-09-24T17:29:13.666Z,2.30
2022-09-24T17:31:40.818Z,1.70
2022-09-24T17:34:10.242Z,2.45
2022-09-24T17:36:37.831Z,2.00
2022-09-24T17:39:05.839Z,2.47
2022-09-24T17:41:33.437Z,2.50
2022-09-24T17:44:00.701Z,2.72
2022-09-24T17:46:29.150Z,3.17
2022-09-24T17:48:57.604Z,2.85
2022-09-24T17:51:26.366Z,3.30
2022-09-24T17:53:54.440Z,3.58
2022-09-24T17:56:23.243Z,2.85
2022-09-24T17:58:52.181Z,2.22
2022-09-24T18:01:24.474Z,2.60
2022-09-24T18:03:55.682Z,2.85
2022-09-24T18:06:27.132Z,2.55
2022-09-24T18:11:31.836Z,2.70
2022-09-24T18:14:00.052Z,2.38
2022-09-24T18:16:28.320Z,2.75
2022-09-24T18:18:55.907Z,2.58
2022-09-24T18:21:23.821Z,2.35
2022-09-24T18:23:54.879Z,2.65
2022-09-24T18:26:28.224Z,3.00
2022-09-24T18:28:59.421Z,2.83
2022-09-24T18:31:28.389Z,2.78
2022-09-24T18:33:56.996Z,2.80
2022-09-24T18:36:25.658Z,3.33
2022-09-24T18:38:52.747Z,2.55
2022-09-24T18:41:21.282Z,2.72
2022-09-24T18:43:48.340Z,3.42
2022-09-24T18:46:16.443Z,2.75
2022-09-24T18:48:44.623Z,2.78
2022-09-24T18:51:22.227Z,2.85
2022-09-24T18:53:55.806Z,2.55
2022-09-24T18:59:04.745Z,3.28
2022-09-24T19:01:34.425Z,3.10
2022-09-24T19:04:01.997Z,3.85
2022-09-24T19:06:29.731Z,3.25
2022-09-24T19:08:57.039Z,3.70
2022-09-24T19:11:24.310Z,3.67
2022-09-24T19:13:52.304Z,3.92
2022-09-24T19:16:20.217Z,4.03
2022-09-24T19:18:47.586Z,3.70
2022-09-24T19:21:15.593Z,4.10
2022-09-24T19:23:44.773Z,3.95
2022-09-24T19:26:12.579Z,3.92
2022-09-24T19:28:41.016Z,3.85
2022-09-24T19:31:13.317Z,3.63
2022-09-24T19:33:40.634Z,3.60
2022-09-24T19:36:08.182Z,4.10
2022-09-24T19:38:35.799Z,3.65
2022-09-24T19:41:05.570Z,3.97
2022-09-24T19:43:35.805Z,3.33
2022-09-24T19:46:10.062Z,4.10
2022-09-24T19:48:38.547Z,4.25
2022-09-24T19:51:07.242Z,4.22
2022-09-24T19:53:34.417Z,4.32
2022-09-24T19:56:01.853Z,3.75
2022-09-24T19:58:29.006Z,4.18
2022-09-24T20:01:00.638Z,4.25
2022-09-24T20:03:27.723Z,4.32
2022-09-24T20:05:54.873Z,4.72
2022-09-24T20:08:23.382Z,4.68
2022-09-24T20:10:50.987Z,4.35
2022-09-24T20:13:18.620Z,4.25
2022-09-24T20:15:45.914Z,4.38
2022-09-24T20:18:13.273Z,4.03
2022-09-24T20:20:40.446Z,4.28
2022-09-24T20:23:08.370Z,4.85
2022-09-24T20:26:08.256Z,4.55
2022-09-24T20:28:35.330Z,4.35
2022-09-24T20:31:02.659Z,4.43
2022-09-24T20:33:30.924Z,4.10
2022-09-24T20:36:02.322Z,4.90
2022-09-24T20:38:29.710Z,4.93
2022-09-24T20:40:57.214Z,5.30
2022-09-24T20:43:25.184Z,4.63
2022-09-24T20:45:52.733Z,4.75
2022-09-24T20:48:19.887Z,4.82
2022-09-24T20:50:47.096Z,4.40
2022-09-24T20:53:14.326Z,5.82
2022-09-24T20:55:41.372Z,6.53
2022-09-24T20:58:09.268Z,5.85
2022-09-24T21:00:47.799Z,7.28
2022-09-24T21:03:42.050Z,7.68
2022-09-24T21:06:07.324Z,7.38
2022-09-24T21:08:41.343Z,6.63
2022-09-24T21:11:09.798Z,5.57
2022-09-24T21:13:41.034Z,5.93
2022-09-24T21:16:09.567Z,5.75
2022-09-24T21:18:40.068Z,6.30
2022-09-24T21:21:08.528Z,5.57
2022-09-24T21:23:38.038Z,5.53
2022-09-24T21:26:16.099Z,5.70
2022-09-24T21:28:44.135Z,5.80
2022-09-24T21:31:11.671Z,5.80
2022-09-24T21:33:38.788Z,5.93
2022-09-24T21:36:07.548Z,6.00
2022-09-24T21:38:34.638Z,6.45
2022-09-24T21:41:03.513Z,6.18
2022-09-24T21:43:34.683Z,5.78
2022-09-24T21:46:06.652Z,6.63
2022-09-24T21:48:34.680Z,6.03
2022-09-24T21:51:09.084Z,6.35
2022-09-24T21:53:36.750Z,6.28
2022-09-24T21:56:04.486Z,6.35
2022-09-24T21:58:31.674Z,6.70
2022-09-24T22:01:04.321Z,6.25
2022-09-24T22:06:03.391Z,6.57
2022-09-24T22:08:32.052Z,6.55
2022-09-24T22:11:06.508Z,7.22
2022-09-24T22:13:34.124Z,7.43
2022-09-24T22:16:01.897Z,6.72
2022-09-24T22:18:29.129Z,7.75
2022-09-24T22:20:56.848Z,7.38
2022-09-24T22:23:24.574Z,7.00
2022-09-24T22:25:55.920Z,6.88
2022-09-24T22:28:24.500Z,7.05
2022-09-24T22:30:56.094Z,6.32
2022-09-24T22:33:42.665Z,6.75
2022-09-24T22:36:10.104Z,6.72
2022-09-24T22:38:37.697Z,6.60
2022-09-24T22:41:06.164Z,6.90
2022-09-24T22:43:33.603Z,5.78
2022-09-24T22:46:01.343Z,7.68
2022-09-24T22:48:28.664Z,7.47
2022-09-24T22:50:55.715Z,6.72
2022-09-24T22:53:23.079Z,6.78
2022-09-24T22:55:52.692Z,6.53
2022-09-24T22:58:20.230Z,6.72
2022-09-24T23:00:47.406Z,6.70
2022-09-24T23:03:14.568Z,7.25
2022-09-24T23:05:41.904Z,6.55
2022-09-24T23:08:08.966Z,6.45
2022-09-24T23:10:36.025Z,5.82
2022-09-24T23:13:03.116Z,7.03
2022-09-24T23:15:31.432Z,6.97
2022-09-24T23:17:58.541Z,7.13
2022-09-24T23:20:25.743Z,6.22
2022-09-24T23:22:52.816Z,6.22
2022-09-24T23:25:20.003Z,6.13
2022-09-24T23:27:48.250Z,6.00
2022-09-24T23:30:15.349Z,6.13
2022-09-24T23:32:42.425Z,5.90
2022-09-24T23:35:09.652Z,6.30
2022-09-24T23:37:36.980Z,6.30
2022-09-24T23:40:04.126Z,5.90
2022-09-24T23:42:31.422Z,6.35
2022-09-24T23:44:58.655Z,6.15
2022-09-24T23:47:25.889Z,6.25
2022-09-24T23:49:52.935Z,5.85
2022-09-24T23:52:20.023Z,5.93
2022-09-24T23:54:47.687Z,6.32
2022-09-24T23:57:15.560Z,6.55
2022-09-24T23:59:42.601Z,6.38
